cliquez pour ajouter le site Runraid à vos favoris  English version (google)  Retour à l'accueil Ecrire à l'auteur du site Runraid : Michel Jourdan



Les prochaines courses


Les derniers résultats

cliquez pour visualiser la page complète relatant la chronologie des éruptions du Piton de la Fournaise
éruptions Piton de la Fournaise


Ile de La Réunion

 Diagonale des Fous 

Ecrire au créateur du site : Michel Jourdan
Contact


2015-11-14 - Kours Ti Bwa 10 km

Pour consulter le palmarès d'un coureur, un clic sur son nom !

Vous avez des remarques, corrections, ... sur ces résultats , un clic sur --> pour me transmettre toute information concernant les classements


Kours Ti Bwa 10 km - 2015 : classement des 149 finishers
Place Nom Temps Cat. Club Sexe Clt/cat.
Place Nom Temps Cat. Club Sexe Clt/cat.
1 PAYET Jean Patrice 00:44:27 V1M - M 593
2 LE GUERN Kevin 00:44:49 ESM - M 579
3 CUVELIER Leopold 00:49:28 SEM - M 474
4 VEFOUR Stephane 00:50:14 SEM - M 503
5 SALVADORE Jean Louis 00:51:48 V2M - M 545
6 DELIRON Olivier 00:51:52 SEM - M 467
7 LAURET Dany 00:52:20 V1M - M 422
8 FRADELIN Rene 00:53:10 V1M - M 508
9 PERIANDEMODELY Gael 00:53:21 SEM - M 554
10 FATOL Thierry 00:53:31 SEM - M 544
11 ADRIEN Eric 00:53:54 V1M - M 589
12 MINATCHY PETCHY Jean Philippe 00:53:59 SEM - M 490
13 LE GUERN Herve 00:54:21 V2M - M 578
14 VIDOT Jean Francois 00:54:41 V1M - M 452
15 GALAIS Jean Bernard 00:54:59 V1M - M 472
16 GUERIN Frederic 00:55:19 V2M - M 446
17 JACQUENET John 00:55:26 V1M - M 405
18 DROZO Yannick 00:55:33 V1M - M 449
19 ROUSSEAU Laurent 00:56:02 SEM - M 465
20 MARIE JEANNE Jim Jean Michel 00:57:22 SEM - M 556
21 SOUBOU Laurent 00:58:07 V1M - M 496
22 ARNE Jasmin 00:58:43 V1M - M 502
23 GROSSET David 00:58:55 SEM - M 418
24 PERSEE Jean Yolain 00:59:01 V1M - M 507
25 BEONEL Fabrice 00:59:33 V1M - M 401
26 LON MON POY Eric 00:59:54 V1M - M 475
27 BERTILLE Jean Bernard 00:59:56 SEM - M 575
28 LE Khanh 01:00:16 SEM - M 567
29 MINATCHY Christopher 01:00:38 SEM - M 571
30 TURPIN Henri Claude 01:01:24 V2M - M 414
31 HEURTIN Julien 01:01:35 ESM - M 513
32 SCODAVOLPE Fabrice 01:02:05 SEM - M 456
33 PERFILLON Sulivan 01:02:18 SEM - M 470
34 LAFOSSE Jerome 01:02:30 V1M - M 560
35 BADORE Patrick 01:02:46 V1M - M 431
36 VIRAMA Dominique 01:03:03 V1M - M 410
37 BEONEL Jean David 01:03:33 SEM - M 572
38 LAW YAM Michel 01:03:38 V3M - M 441
39 LEBON Dominique 01:03:43 V2F - F 1ere F 447
40 SERAPHIN Patrick 01:03:50 SEM - M 477
41 PUYLAURENT Julius Mercey 01:04:03 V1M - M 438
42 SINCERE Eric 01:04:09 V1M - M 501
43 BENARD Stephan 01:04:13 V1M - M 561
44 GEREONE Willy 01:04:33 SEM - M 466
45 ARAUX Thierry 01:04:42 V1M - M 546
46 PIERRE Agnes 01:04:51 V1F - F 2eme F 432
47 EMMA Corinne 01:05:26 V1F - F 3eme F 473
48 JEAN BART Gerald 01:05:35 V2M - M 486
49 NOEL Jean Loup 01:05:55 M - M 509
50 AURE Yvon 01:05:59 V2M - M 468
51 KASSIMOU BAKARI Said 01:06:05 SEM - M 487
52 RACINE Gilbert 01:06:07 V1M - M 505
53 TIBERE Jean Baptiste 01:06:15 V1M - M 577
54 IMIZA Jean Fabrice 01:06:30 V1M - M 576
55 LIVAVATE Bryan 01:07:24 SEM - M 585
56 GARDENAT Jean Pierre 01:07:31 V3M - M 541
57 AURE Patrick 01:07:39 V2M - M 588
58 HOARAU Roger 01:07:40 V2M - M 482
59 DORLA Alix 01:07:41 V1M - M 415
60 ELISABETH Tommy 01:08:09 CAM - M 476
61 DIJOUX Damien 01:08:22 SEM - M 420
62 MARIE MARTHE Bernard 01:08:27 V2M - M 445
63 CONSTANCE Jimmy 01:08:31 SEM - M 402
64 LANGE Greg 01:08:44 JUM - M 459
65 PITAULT Boris 01:08:50 V1M - M 574
66 VIRAMA Jacky 01:09:06 V2M - M 409
67 BUCHLE Alexandre 01:09:09 SEM - M 416
68 CARO Gilbert 01:09:21 V2M - M 437
69 VARDAPIN Richemond 01:09:38 V1M - M 510
70 FATOL Philippe 01:10:05 V1M - M 555
71 LEBON Jean Marc 01:10:08 V3M - M 448
72 CONSTANTE Jean Michel 01:10:30 V1M - M 403
73 CLAIN Jacques 01:11:00 V2M - M 550
74 LE TENNIER Sylvie 01:11:11 V2F - F 4eme F 565
75 MANTES Georges Marie 01:11:58 V2M - M 428
76 CRAMPE Yannick 01:12:33 SEM - M 406
77 ORUS Lina 01:12:48 SEF - F 5eme F 497
78 FATOL Denis 01:12:55 V1M - M 552
79 PITAULT Clarisse 01:13:10 V1F - F 6eme F 573
80 THOMAS Ludovic 01:13:48 JUM - M 558
81 BOIS Fred 01:13:51 SEM - M 500
82 MAHADZERE Jean Thierry 01:13:57 V1M - M 423
83 PUYLAURENT Guillaume 01:14:27 SEM - M 419
84 MUSSIDAN Brunella 01:14:30 SEF - F 7eme F 451
85 NEMORIN Simone 01:14:53 V1F - F 8eme F 493
86 CONSTANTE Jean Daniel 01:15:11 V1M - M 436
87 PUYLAURENT Jean Charles 01:15:34 V1M - M 549
88 VATEL Harry Georges 01:15:37 SEM - M 504
89 LIVAVATE Christophie 01:15:57 SEF - F 9eme F 584
90 BENINCASA Dominique 01:16:12 V2M - M 408
91 MINATCHY George 01:16:34 V2M - M 570
92 SOULIE Patrick 01:16:47 V2M - M 464
93 JOURDAIN Frederic 01:16:53 SEM - M 568
94 MARIE JEANNE Julien 01:17:27 ESM - M 557
95 QUONIAM Celine 01:17:55 V1F - F 10eme F 562
96 AMILHAT Thibaut 01:18:21 SEM - M 512
97 DAVERY Yvan 01:18:25 JUM - M 548
98 FONTAINE Erick 01:18:29 V2M - M 498
99 VIRASSAMY Jorene 01:18:47 V1F - F 11eme F 488
100 GALAIS VIDOT Karine 01:18:50 SEF - F 12eme F 454
101 AURE Marie Josee 01:20:02 V2F - F 13eme F 469
102 GALMAR Elodie 01:20:35 JUF - F 14eme F 581
103 GRONDIN Isnelle 01:20:37 V1F - F 15eme F 450
104 SAIDOU Guy 01:20:42 V2M - M 481
105 POUNOUSSAMY Henri Claude 01:20:44 V2M - M 443
106 ALAUX Enzo 01:20:46 CAM - M 597
107 TRIVY Jean Marie 01:21:17 V1M - M 586
108 CONSTANTE Marie Sylvie 01:21:21 V1F - F 16eme F 435
109 HADDAD Joseph 01:21:37 V3M - M 564
110 BEDACHE Raissa 01:21:58 SEF - F 17eme F 479
111 TAILOU Bruno 01:22:02 V2M - M 551
112 FATOL Alexandre 01:22:35 CAM - M 553
113 PAYET Maryse 01:22:52 V1F - F 18eme F 495
114 QUONIAM Thierry 01:22:54 V1M - M 442
115 MAILLOT Pierre 01:22:58 V2M - M 492
116 POIRRIEZ Franck 01:23:08 V1M - M 407
117 TAYSS Naima 01:23:18 V1F - F 19eme F 542
118 CANON Jocelyne 01:23:36 V1F - F 20eme F 563
119 ZITTE Nicolas 01:23:44 SEM - M 485
120 RAMIN COUPIN Nathalie 01:24:33 V1F - F 596
121 SADEYEN Antoine 01:24:40 V2M - M 400
122 CELESTE Bernard 01:24:52 V2M - M 471
123 DORVAL David 01:24:59 V1M - M 430
124 COUTAYE Marie Anne 01:26:12 V2F - F 444
125 MOUNIAMA Patrice 01:26:30 V1M - M 582
126 MUSSIDAN Marie Sidonie 01:26:33 V1F - F 453
127 GUERY Benoit 01:27:04 SEM - M 417
128 HOARAU Richard 01:29:53 V1M - M 439
129 HOARAU Jean Luc 01:29:58 V3M - M 543
130 DAVERY Patrick 01:30:28 V1M - M 547
131 LON MON POY Marinelle 01:30:35 V1F - F 491
132 PAYET Karine 01:31:14 V1F - F 433
133 LAI YEN KANG Lydie 01:31:44 V3F - F 569
134 GOULAMOUSSENE Marie Nathalie 01:32:55 V1F - F 494
135 PEYROT Vanessa 01:33:51 SEF - F 580
136 EUPHRASIE Annick 01:33:57 V2F - F 424
137 DORASSAMY Michel 01:39:04 V2M - M 427
138 SIMNE Jean Prisca Elson 01:42:13 SEM - M 506
139 GREGOIRE Nina 01:43:17 SEF - F 540
140 MANGUE Corinne 01:43:22 SEF - F 478
141 LIN KEN HSIEN Louisane 01:43:29 V1F - F 429
142 VIRAMA Elodie 01:45:26 ESF - F 412
143 VIRAMA Jean Marc 01:45:35 V3M - M 413
144 VIRAMA Laurence 01:45:37 SEF - F 411
145 HERODE Gianni 01:46:45 V1M - M 583
146 GEREONE Jean Bernard 01:46:48 SEM - M 421
147 MAHADZERE Audrey 01:49:01 SEF - F 425
148 MAHADZERE Willy 01:49:03 SEM - M 426
149 MAHADZERE Sylvie 01:49:17 V1F - F 404


ReferencementCe site est listé dans la catégorie Sport : Sports extrêmes Dictionnaire
| Accueil | La Réunion  Vue du ciel | Météo | Cyclones | Volcan | Cirques de Mafate , Cilaos , Salazie | Photos Randonnées | Randonnées Réunion: Randos Espiègle , Courses montagne | Diagonale des Fous |  Marathon des Sables | Voyages Les stats du site | Fonds écran | Plan du site | Blog de runraid | Galerie photos Sport Réunion |